Terminal Aerodrome Forecast
Issued by NWS Corpus Christi, TX

Home | Current Version | Previous Version | Text Only | Print | Product List | Glossary On
Versions: 1 2 3 4 5 6 7 8 9 10 11 12 13 14 15 16 17 18 19 20 21 22 23 24 25 26 27 28
000
FTUS44 KCRP 252329
TAFVCT
TAF
KVCT 252329Z 2600/2624 16008KT P6SM FEW012
     FM260500 16005KT 4SM BR SCT007
     FM260700 17003KT 1/2SM FG BKN003
     FM261400 17003KT 2SM BR SCT005 BKN009 BKN014
     FM261500 17005KT P6SM SCT015 BKN022
     FM261700 16011KT P6SM SCT025 BKN035=

USA.gov is the U.S. government's official web portal to all federal, state and local government web resources and services.